sensor_id;sensor_type;location;lat;lon;timestamp;P1;durP1;ratioP1;P2;durP2;ratioP2
18881;SDS011;9573;50.948;11.600;2023-06-22T00:01:33;17.83;;;8.00;;
18881;SDS011;9573;50.948;11.600;2023-06-22T00:04:00;21.07;;;8.70;;
18881;SDS011;9573;50.948;11.600;2023-06-22T00:06:27;22.40;;;9.30;;
18881;SDS011;9573;50.948;11.600;2023-06-22T00:08:55;19.87;;;8.97;;
18881;SDS011;9573;50.948;11.600;2023-06-22T00:11:22;21.47;;;8.97;;
18881;SDS011;9573;50.948;11.600;2023-06-22T00:13:50;21.97;;;8.03;;
18881;SDS011;9573;50.948;11.600;2023-06-22T00:16:17;18.63;;;8.07;;
18881;SDS011;9573;50.948;11.600;2023-06-22T00:18:44;19.13;;;8.30;;
18881;SDS011;9573;50.948;11.600;2023-06-22T00:21:12;18.30;;;7.97;;
18881;SDS011;9573;50.948;11.600;2023-06-22T00:23:39;19.40;;;8.10;;
18881;SDS011;9573;50.948;11.600;2023-06-22T00:26:07;19.63;;;7.63;;
18881;SDS011;9573;50.948;11.600;2023-06-22T00:28:35;19.20;;;7.87;;
18881;SDS011;9573;50.948;11.600;2023-06-22T00:31:02;19.73;;;8.13;;
18881;SDS011;9573;50.948;11.600;2023-06-22T00:33:29;19.03;;;8.43;;
18881;SDS011;9573;50.948;11.600;2023-06-22T00:35:56;19.40;;;8.27;;
18881;SDS011;9573;50.948;11.600;2023-06-22T00:38:23;20.83;;;8.30;;
18881;SDS011;9573;50.948;11.600;2023-06-22T00:40:50;18.90;;;7.70;;
18881;SDS011;9573;50.948;11.600;2023-06-22T00:43:19;18.60;;;8.07;;
18881;SDS011;9573;50.948;11.600;2023-06-22T00:45:46;17.63;;;7.80;;
18881;SDS011;9573;50.948;11.600;2023-06-22T00:48:13;18.97;;;8.53;;
18881;SDS011;9573;50.948;11.600;2023-06-22T00:50:41;20.13;;;8.50;;
18881;SDS011;9573;50.948;11.600;2023-06-22T00:53:09;18.60;;;7.83;;
18881;SDS011;9573;50.948;11.600;2023-06-22T00:55:37;22.90;;;8.70;;
18881;SDS011;9573;50.948;11.600;2023-06-22T00:58:07;19.93;;;8.97;;
18881;SDS011;9573;50.948;11.600;2023-06-22T01:00:36;19.57;;;8.70;;
18881;SDS011;9573;50.948;11.600;2023-06-22T01:03:04;21.50;;;8.47;;
18881;SDS011;9573;50.948;11.600;2023-06-22T01:05:33;17.73;;;8.53;;
18881;SDS011;9573;50.948;11.600;2023-06-22T01:08:11;20.50;;;8.83;;
18881;SDS011;9573;50.948;11.600;2023-06-22T01:10:50;19.77;;;8.43;;
18881;SDS011;9573;50.948;11.600;2023-06-22T01:13:32;20.83;;;8.40;;
18881;SDS011;9573;50.948;11.600;2023-06-22T01:16:07;19.27;;;8.07;;
18881;SDS011;9573;50.948;11.600;2023-06-22T01:18:42;21.40;;;8.77;;
18881;SDS011;9573;50.948;11.600;2023-06-22T01:21:11;18.77;;;8.50;;
18881;SDS011;9573;50.948;11.600;2023-06-22T01:23:47;19.97;;;8.73;;
18881;SDS011;9573;50.948;11.600;2023-06-22T01:26:25;20.03;;;8.97;;
18881;SDS011;9573;50.948;11.600;2023-06-22T01:29:14;22.03;;;9.37;;
18881;SDS011;9573;50.948;11.600;2023-06-22T01:31:43;20.73;;;9.23;;
18881;SDS011;9573;50.948;11.600;2023-06-22T01:34:11;22.40;;;9.40;;
18881;SDS011;9573;50.948;11.600;2023-06-22T01:36:40;21.10;;;9.37;;
18881;SDS011;9573;50.948;11.600;2023-06-22T01:39:08;22.97;;;9.57;;
18881;SDS011;9573;50.948;11.600;2023-06-22T01:41:37;24.77;;;9.90;;
18881;SDS011;9573;50.948;11.600;2023-06-22T01:44:07;22.00;;;9.50;;
18881;SDS011;9573;50.948;11.600;2023-06-22T01:46:37;22.33;;;9.43;;
18881;SDS011;9573;50.948;11.600;2023-06-22T01:49:06;22.50;;;9.47;;
18881;SDS011;9573;50.948;11.600;2023-06-22T01:51:33;23.50;;;9.57;;
18881;SDS011;9573;50.948;11.600;2023-06-22T01:54:00;24.33;;;9.70;;
18881;SDS011;9573;50.948;11.600;2023-06-22T01:56:28;20.97;;;9.40;;
18881;SDS011;9573;50.948;11.600;2023-06-22T01:58:57;21.23;;;9.73;;
18881;SDS011;9573;50.948;11.600;2023-06-22T02:01:31;23.40;;;10.50;;
18881;SDS011;9573;50.948;11.600;2023-06-22T02:04:09;20.93;;;9.97;;
18881;SDS011;9573;50.948;11.600;2023-06-22T02:06:42;20.87;;;9.43;;
18881;SDS011;9573;50.948;11.600;2023-06-22T02:09:11;23.53;;;9.77;;
18881;SDS011;9573;50.948;11.600;2023-06-22T02:11:42;21.47;;;9.87;;
18881;SDS011;9573;50.948;11.600;2023-06-22T02:14:13;22.03;;;9.13;;
18881;SDS011;9573;50.948;11.600;2023-06-22T02:16:42;22.60;;;9.90;;
18881;SDS011;9573;50.948;11.600;2023-06-22T02:19:09;20.33;;;9.40;;
18881;SDS011;9573;50.948;11.600;2023-06-22T02:21:36;24.33;;;10.23;;
18881;SDS011;9573;50.948;11.600;2023-06-22T02:24:04;21.40;;;9.87;;
18881;SDS011;9573;50.948;11.600;2023-06-22T02:26:31;20.67;;;9.50;;
18881;SDS011;9573;50.948;11.600;2023-06-22T02:28:59;20.73;;;9.60;;
18881;SDS011;9573;50.948;11.600;2023-06-22T02:31:26;22.67;;;10.13;;
18881;SDS011;9573;50.948;11.600;2023-06-22T02:33:57;20.13;;;9.53;;
18881;SDS011;9573;50.948;11.600;2023-06-22T02:36:24;24.37;;;9.90;;
18881;SDS011;9573;50.948;11.600;2023-06-22T02:38:52;22.97;;;10.40;;
18881;SDS011;9573;50.948;11.600;2023-06-22T02:41:21;25.90;;;11.17;;
18881;SDS011;9573;50.948;11.600;2023-06-22T02:43:48;23.77;;;11.13;;
18881;SDS011;9573;50.948;11.600;2023-06-22T02:46:15;23.43;;;10.67;;
18881;SDS011;9573;50.948;11.600;2023-06-22T02:48:42;24.23;;;10.57;;
18881;SDS011;9573;50.948;11.600;2023-06-22T02:51:11;28.20;;;12.20;;
18881;SDS011;9573;50.948;11.600;2023-06-22T02:53:38;29.43;;;12.60;;
18881;SDS011;9573;50.948;11.600;2023-06-22T02:56:09;26.63;;;12.07;;
18881;SDS011;9573;50.948;11.600;2023-06-22T02:58:37;24.80;;;10.47;;
18881;SDS011;9573;50.948;11.600;2023-06-22T03:01:05;25.60;;;11.17;;
18881;SDS011;9573;50.948;11.600;2023-06-22T03:03:32;24.67;;;11.37;;
18881;SDS011;9573;50.948;11.600;2023-06-22T03:05:59;25.90;;;11.13;;
18881;SDS011;9573;50.948;11.600;2023-06-22T03:08:28;26.03;;;11.23;;
18881;SDS011;9573;50.948;11.600;2023-06-22T03:10:55;25.07;;;11.40;;
18881;SDS011;9573;50.948;11.600;2023-06-22T03:13:23;24.07;;;10.73;;
18881;SDS011;9573;50.948;11.600;2023-06-22T03:15:50;28.40;;;11.47;;
18881;SDS011;9573;50.948;11.600;2023-06-22T03:18:17;27.00;;;11.30;;
18881;SDS011;9573;50.948;11.600;2023-06-22T03:20:47;23.60;;;11.20;;
18881;SDS011;9573;50.948;11.600;2023-06-22T03:23:14;26.60;;;11.40;;
18881;SDS011;9573;50.948;11.600;2023-06-22T03:25:43;26.10;;;11.67;;
18881;SDS011;9573;50.948;11.600;2023-06-22T03:28:10;26.13;;;11.63;;
18881;SDS011;9573;50.948;11.600;2023-06-22T03:30:37;25.97;;;10.97;;
18881;SDS011;9573;50.948;11.600;2023-06-22T03:33:04;28.77;;;12.17;;
18881;SDS011;9573;50.948;11.600;2023-06-22T03:35:31;26.73;;;12.03;;
18881;SDS011;9573;50.948;11.600;2023-06-22T03:37:58;28.23;;;12.03;;
18881;SDS011;9573;50.948;11.600;2023-06-22T03:40:25;24.63;;;11.23;;
18881;SDS011;9573;50.948;11.600;2023-06-22T03:42:54;25.83;;;11.73;;
18881;SDS011;9573;50.948;11.600;2023-06-22T03:45:21;23.93;;;10.80;;
18881;SDS011;9573;50.948;11.600;2023-06-22T03:47:48;27.07;;;10.53;;
18881;SDS011;9573;50.948;11.600;2023-06-22T03:50:16;22.23;;;10.40;;
18881;SDS011;9573;50.948;11.600;2023-06-22T03:52:45;22.13;;;9.47;;
18881;SDS011;9573;50.948;11.600;2023-06-22T03:55:12;22.80;;;9.57;;
18881;SDS011;9573;50.948;11.600;2023-06-22T03:57:39;23.03;;;10.40;;
18881;SDS011;9573;50.948;11.600;2023-06-22T04:00:08;23.23;;;10.10;;
18881;SDS011;9573;50.948;11.600;2023-06-22T04:02:37;22.60;;;10.27;;
18881;SDS011;9573;50.948;11.600;2023-06-22T04:05:04;25.10;;;10.23;;
18881;SDS011;9573;50.948;11.600;2023-06-22T04:07:32;21.50;;;9.57;;
18881;SDS011;9573;50.948;11.600;2023-06-22T04:09:59;21.93;;;9.83;;
18881;SDS011;9573;50.948;11.600;2023-06-22T04:12:26;23.67;;;10.27;;
18881;SDS011;9573;50.948;11.600;2023-06-22T04:14:53;26.30;;;10.67;;
18881;SDS011;9573;50.948;11.600;2023-06-22T04:17:22;25.87;;;10.30;;
18881;SDS011;9573;50.948;11.600;2023-06-22T04:19:50;24.00;;;10.97;;
18881;SDS011;9573;50.948;11.600;2023-06-22T04:22:17;23.27;;;9.90;;
18881;SDS011;9573;50.948;11.600;2023-06-22T04:24:44;27.67;;;10.20;;
18881;SDS011;9573;50.948;11.600;2023-06-22T04:27:11;21.27;;;9.93;;
18881;SDS011;9573;50.948;11.600;2023-06-22T04:29:38;23.43;;;9.70;;
18881;SDS011;9573;50.948;11.600;2023-06-22T04:32:14;22.83;;;10.40;;
18881;SDS011;9573;50.948;11.600;2023-06-22T04:34:42;23.87;;;10.10;;
18881;SDS011;9573;50.948;11.600;2023-06-22T04:37:09;23.07;;;10.03;;
18881;SDS011;9573;50.948;11.600;2023-06-22T04:39:40;23.23;;;10.20;;
18881;SDS011;9573;50.948;11.600;2023-06-22T04:42:08;28.47;;;11.23;;
18881;SDS011;9573;50.948;11.600;2023-06-22T04:44:35;24.40;;;11.13;;
18881;SDS011;9573;50.948;11.600;2023-06-22T04:47:02;24.67;;;11.43;;
18881;SDS011;9573;50.948;11.600;2023-06-22T04:49:33;23.73;;;11.07;;
18881;SDS011;9573;50.948;11.600;2023-06-22T04:52:04;26.43;;;11.57;;
18881;SDS011;9573;50.948;11.600;2023-06-22T04:54:35;28.97;;;12.17;;
18881;SDS011;9573;50.948;11.600;2023-06-22T04:57:05;23.43;;;10.90;;
18881;SDS011;9573;50.948;11.600;2023-06-22T04:59:35;26.43;;;10.73;;
18881;SDS011;9573;50.948;11.600;2023-06-22T05:02:04;23.93;;;10.90;;
18881;SDS011;9573;50.948;11.600;2023-06-22T05:04:32;21.40;;;10.27;;
18881;SDS011;9573;50.948;11.600;2023-06-22T05:07:00;26.63;;;11.10;;
18881;SDS011;9573;50.948;11.600;2023-06-22T05:09:30;26.87;;;11.10;;
18881;SDS011;9573;50.948;11.600;2023-06-22T05:11:58;25.30;;;11.30;;
18881;SDS011;9573;50.948;11.600;2023-06-22T05:14:27;27.37;;;11.13;;
18881;SDS011;9573;50.948;11.600;2023-06-22T05:16:54;21.90;;;10.70;;
18881;SDS011;9573;50.948;11.600;2023-06-22T05:19:23;23.33;;;10.80;;
18881;SDS011;9573;50.948;11.600;2023-06-22T05:21:58;23.00;;;11.20;;
18881;SDS011;9573;50.948;11.600;2023-06-22T05:24:26;25.97;;;11.77;;
18881;SDS011;9573;50.948;11.600;2023-06-22T05:26:53;25.77;;;12.03;;
18881;SDS011;9573;50.948;11.600;2023-06-22T05:29:21;30.70;;;12.93;;
18881;SDS011;9573;50.948;11.600;2023-06-22T05:31:48;26.30;;;12.30;;
18881;SDS011;9573;50.948;11.600;2023-06-22T05:34:15;35.13;;;13.00;;
18881;SDS011;9573;50.948;11.600;2023-06-22T05:36:42;26.07;;;11.67;;
18881;SDS011;9573;50.948;11.600;2023-06-22T05:39:12;21.77;;;10.83;;
18881;SDS011;9573;50.948;11.600;2023-06-22T05:41:42;28.37;;;11.63;;
18881;SDS011;9573;50.948;11.600;2023-06-22T05:44:10;25.75;;;11.70;;
18881;SDS011;9573;50.948;11.600;2023-06-22T05:46:39;27.00;;;11.55;;
18881;SDS011;9573;50.948;11.600;2023-06-22T05:49:11;24.20;;;11.50;;
18881;SDS011;9573;50.948;11.600;2023-06-22T05:51:39;26.42;;;11.82;;
18881;SDS011;9573;50.948;11.600;2023-06-22T05:54:06;28.55;;;12.02;;
18881;SDS011;9573;50.948;11.600;2023-06-22T05:56:34;24.63;;;11.38;;
18881;SDS011;9573;50.948;11.600;2023-06-22T05:59:02;28.00;;;12.40;;
18881;SDS011;9573;50.948;11.600;2023-06-22T06:01:30;29.30;;;12.00;;
18881;SDS011;9573;50.948;11.600;2023-06-22T06:04:00;26.70;;;10.95;;
18881;SDS011;9573;50.948;11.600;2023-06-22T06:06:29;24.02;;;11.05;;
18881;SDS011;9573;50.948;11.600;2023-06-22T06:08:56;24.70;;;10.77;;
18881;SDS011;9573;50.948;11.600;2023-06-22T06:11:24;24.67;;;11.18;;
18881;SDS011;9573;50.948;11.600;2023-06-22T06:13:52;26.20;;;12.13;;
18881;SDS011;9573;50.948;11.600;2023-06-22T06:16:20;26.42;;;11.80;;
18881;SDS011;9573;50.948;11.600;2023-06-22T06:18:48;24.42;;;11.80;;
18881;SDS011;9573;50.948;11.600;2023-06-22T06:21:15;30.38;;;12.02;;
18881;SDS011;9573;50.948;11.600;2023-06-22T06:23:43;26.60;;;12.13;;
18881;SDS011;9573;50.948;11.600;2023-06-22T06:26:10;22.67;;;10.75;;
18881;SDS011;9573;50.948;11.600;2023-06-22T06:28:37;28.67;;;12.70;;
18881;SDS011;9573;50.948;11.600;2023-06-22T06:31:04;28.90;;;13.30;;
18881;SDS011;9573;50.948;11.600;2023-06-22T06:33:33;26.48;;;11.73;;
18881;SDS011;9573;50.948;11.600;2023-06-22T06:36:00;26.90;;;11.75;;
18881;SDS011;9573;50.948;11.600;2023-06-22T06:38:28;26.55;;;11.63;;
18881;SDS011;9573;50.948;11.600;2023-06-22T06:40:55;28.08;;;12.48;;
18881;SDS011;9573;50.948;11.600;2023-06-22T06:43:23;26.05;;;12.73;;
18881;SDS011;9573;50.948;11.600;2023-06-22T06:45:50;25.85;;;11.77;;
18881;SDS011;9573;50.948;11.600;2023-06-22T06:48:34;26.25;;;11.85;;
18881;SDS011;9573;50.948;11.600;2023-06-22T06:51:01;25.25;;;11.80;;
18881;SDS011;9573;50.948;11.600;2023-06-22T06:53:28;24.45;;;11.07;;
18881;SDS011;9573;50.948;11.600;2023-06-22T06:55:55;25.40;;;11.15;;
18881;SDS011;9573;50.948;11.600;2023-06-22T06:58:22;23.77;;;11.23;;
18881;SDS011;9573;50.948;11.600;2023-06-22T07:00:49;25.02;;;10.93;;
18881;SDS011;9573;50.948;11.600;2023-06-22T07:03:16;25.10;;;12.07;;
18881;SDS011;9573;50.948;11.600;2023-06-22T07:05:45;28.52;;;12.48;;
18881;SDS011;9573;50.948;11.600;2023-06-22T07:08:12;25.63;;;11.85;;
18881;SDS011;9573;50.948;11.600;2023-06-22T07:10:39;25.92;;;11.90;;
18881;SDS011;9573;50.948;11.600;2023-06-22T07:13:06;25.73;;;11.93;;
18881;SDS011;9573;50.948;11.600;2023-06-22T07:15:33;23.20;;;11.10;;
18881;SDS011;9573;50.948;11.600;2023-06-22T07:18:00;24.42;;;11.07;;
18881;SDS011;9573;50.948;11.600;2023-06-22T07:20:27;23.92;;;11.48;;
18881;SDS011;9573;50.948;11.600;2023-06-22T07:22:56;21.25;;;11.80;;
18881;SDS011;9573;50.948;11.600;2023-06-22T07:25:23;21.52;;;10.52;;
18881;SDS011;9573;50.948;11.600;2023-06-22T07:27:57;22.40;;;10.30;;
18881;SDS011;9573;50.948;11.600;2023-06-22T07:30:27;19.48;;;9.82;;
18881;SDS011;9573;50.948;11.600;2023-06-22T07:32:55;22.58;;;9.52;;
18881;SDS011;9573;50.948;11.600;2023-06-22T07:35:23;19.52;;;9.60;;
18881;SDS011;9573;50.948;11.600;2023-06-22T07:37:50;19.40;;;9.55;;
18881;SDS011;9573;50.948;11.600;2023-06-22T07:40:18;20.10;;;8.90;;
18881;SDS011;9573;50.948;11.600;2023-06-22T07:42:45;18.98;;;9.55;;
18881;SDS011;9573;50.948;11.600;2023-06-22T07:45:13;21.45;;;9.77;;
18881;SDS011;9573;50.948;11.600;2023-06-22T07:47:40;17.52;;;9.48;;
18881;SDS011;9573;50.948;11.600;2023-06-22T07:50:07;20.60;;;9.30;;
18881;SDS011;9573;50.948;11.600;2023-06-22T07:52:36;17.63;;;9.07;;
18881;SDS011;9573;50.948;11.600;2023-06-22T07:55:03;20.10;;;9.63;;
18881;SDS011;9573;50.948;11.600;2023-06-22T07:57:32;20.02;;;9.25;;
18881;SDS011;9573;50.948;11.600;2023-06-22T07:59:59;17.55;;;8.65;;
18881;SDS011;9573;50.948;11.600;2023-06-22T08:02:29;20.92;;;9.63;;
18881;SDS011;9573;50.948;11.600;2023-06-22T08:04:56;17.15;;;8.77;;
18881;SDS011;9573;50.948;11.600;2023-06-22T08:07:23;20.02;;;8.73;;
18881;SDS011;9573;50.948;11.600;2023-06-22T08:09:50;19.77;;;8.60;;
18881;SDS011;9573;50.948;11.600;2023-06-22T08:12:17;19.90;;;8.70;;
18881;SDS011;9573;50.948;11.600;2023-06-22T08:14:47;15.38;;;7.53;;
18881;SDS011;9573;50.948;11.600;2023-06-22T08:17:15;17.02;;;7.82;;
18881;SDS011;9573;50.948;11.600;2023-06-22T08:19:42;15.30;;;7.45;;
18881;SDS011;9573;50.948;11.600;2023-06-22T08:22:09;18.02;;;8.27;;
18881;SDS011;9573;50.948;11.600;2023-06-22T08:24:36;18.65;;;7.60;;
18881;SDS011;9573;50.948;11.600;2023-06-22T08:27:04;14.63;;;7.93;;
18881;SDS011;9573;50.948;11.600;2023-06-22T08:29:34;13.50;;;7.45;;
18881;SDS011;9573;50.948;11.600;2023-06-22T08:32:03;22.60;;;7.63;;
18881;SDS011;9573;50.948;11.600;2023-06-22T08:34:31;15.25;;;7.38;;
18881;SDS011;9573;50.948;11.600;2023-06-22T08:36:59;16.58;;;7.72;;
18881;SDS011;9573;50.948;11.600;2023-06-22T08:39:31;15.65;;;7.10;;
18881;SDS011;9573;50.948;11.600;2023-06-22T08:41:58;11.68;;;6.68;;
18881;SDS011;9573;50.948;11.600;2023-06-22T08:44:26;14.50;;;6.70;;
18881;SDS011;9573;50.948;11.600;2023-06-22T08:46:53;16.15;;;6.80;;
18881;SDS011;9573;50.948;11.600;2023-06-22T08:49:21;13.45;;;6.45;;
18881;SDS011;9573;50.948;11.600;2023-06-22T08:51:48;15.40;;;7.22;;
18881;SDS011;9573;50.948;11.600;2023-06-22T08:54:18;16.20;;;6.50;;
18881;SDS011;9573;50.948;11.600;2023-06-22T08:56:45;16.50;;;7.10;;
18881;SDS011;9573;50.948;11.600;2023-06-22T08:59:12;13.60;;;6.72;;
18881;SDS011;9573;50.948;11.600;2023-06-22T09:01:39;12.82;;;6.88;;
18881;SDS011;9573;50.948;11.600;2023-06-22T09:04:10;13.80;;;6.68;;
18881;SDS011;9573;50.948;11.600;2023-06-22T09:06:39;11.68;;;6.43;;
18881;SDS011;9573;50.948;11.600;2023-06-22T09:09:10;10.77;;;6.35;;
18881;SDS011;9573;50.948;11.600;2023-06-22T09:11:37;14.10;;;6.82;;
18881;SDS011;9573;50.948;11.600;2023-06-22T09:14:04;14.98;;;6.40;;
18881;SDS011;9573;50.948;11.600;2023-06-22T09:16:31;12.77;;;6.28;;
18881;SDS011;9573;50.948;11.600;2023-06-22T09:18:58;19.45;;;7.38;;
18881;SDS011;9573;50.948;11.600;2023-06-22T09:21:26;14.23;;;6.82;;
18881;SDS011;9573;50.948;11.600;2023-06-22T09:23:54;12.63;;;6.85;;
18881;SDS011;9573;50.948;11.600;2023-06-22T09:26:22;14.45;;;6.63;;
18881;SDS011;9573;50.948;11.600;2023-06-22T09:28:50;13.18;;;6.68;;
18881;SDS011;9573;50.948;11.600;2023-06-22T09:31:17;11.20;;;6.35;;
18881;SDS011;9573;50.948;11.600;2023-06-22T09:33:50;13.43;;;6.22;;
18881;SDS011;9573;50.948;11.600;2023-06-22T09:36:19;15.82;;;6.50;;
18881;SDS011;9573;50.948;11.600;2023-06-22T09:38:47;15.50;;;6.57;;
18881;SDS011;9573;50.948;11.600;2023-06-22T09:41:19;13.88;;;6.25;;
18881;SDS011;9573;50.948;11.600;2023-06-22T09:43:46;12.43;;;6.50;;
18881;SDS011;9573;50.948;11.600;2023-06-22T09:46:14;16.08;;;6.40;;
18881;SDS011;9573;50.948;11.600;2023-06-22T09:48:41;14.60;;;6.38;;
18881;SDS011;9573;50.948;11.600;2023-06-22T09:51:08;16.40;;;6.28;;
18881;SDS011;9573;50.948;11.600;2023-06-22T09:53:36;13.05;;;6.15;;
18881;SDS011;9573;50.948;11.600;2023-06-22T09:56:03;11.77;;;6.38;;
18881;SDS011;9573;50.948;11.600;2023-06-22T09:58:32;14.68;;;6.45;;
18881;SDS011;9573;50.948;11.600;2023-06-22T10:00:59;15.70;;;6.63;;
18881;SDS011;9573;50.948;11.600;2023-06-22T10:03:26;16.60;;;6.15;;
18881;SDS011;9573;50.948;11.600;2023-06-22T10:05:53;13.63;;;6.28;;
18881;SDS011;9573;50.948;11.600;2023-06-22T10:08:20;12.93;;;6.47;;
18881;SDS011;9573;50.948;11.600;2023-06-22T10:10:47;14.77;;;6.40;;
18881;SDS011;9573;50.948;11.600;2023-06-22T10:13:14;12.40;;;6.35;;
18881;SDS011;9573;50.948;11.600;2023-06-22T10:15:43;16.45;;;6.93;;
18881;SDS011;9573;50.948;11.600;2023-06-22T10:18:14;16.13;;;6.80;;
18881;SDS011;9573;50.948;11.600;2023-06-22T10:20:41;15.02;;;6.75;;
18881;SDS011;9573;50.948;11.600;2023-06-22T10:23:08;14.05;;;6.47;;
18881;SDS011;9573;50.948;11.600;2023-06-22T10:25:35;13.65;;;6.70;;
18881;SDS011;9573;50.948;11.600;2023-06-22T10:28:03;15.65;;;6.65;;
18881;SDS011;9573;50.948;11.600;2023-06-22T10:30:30;15.50;;;6.55;;
18881;SDS011;9573;50.948;11.600;2023-06-22T10:32:58;13.45;;;6.82;;
18881;SDS011;9573;50.948;11.600;2023-06-22T10:35:25;13.90;;;6.68;;
18881;SDS011;9573;50.948;11.600;2023-06-22T10:37:53;15.77;;;6.82;;
18881;SDS011;9573;50.948;11.600;2023-06-22T10:40:21;15.65;;;6.60;;
18881;SDS011;9573;50.948;11.600;2023-06-22T10:42:48;12.82;;;6.53;;
18881;SDS011;9573;50.948;11.600;2023-06-22T10:45:15;15.40;;;7.13;;
18881;SDS011;9573;50.948;11.600;2023-06-22T10:47:44;17.58;;;6.68;;
18881;SDS011;9573;50.948;11.600;2023-06-22T10:50:12;14.70;;;7.00;;
18881;SDS011;9573;50.948;11.600;2023-06-22T10:52:40;17.48;;;6.97;;
18881;SDS011;9573;50.948;11.600;2023-06-22T10:55:08;16.27;;;7.00;;
18881;SDS011;9573;50.948;11.600;2023-06-22T10:57:35;15.43;;;7.25;;
18881;SDS011;9573;50.948;11.600;2023-06-22T11:00:04;15.65;;;6.85;;
18881;SDS011;9573;50.948;11.600;2023-06-22T11:02:36;15.15;;;7.10;;
18881;SDS011;9573;50.948;11.600;2023-06-22T11:05:03;18.40;;;6.97;;
18881;SDS011;9573;50.948;11.600;2023-06-22T11:07:33;17.73;;;6.85;;
18881;SDS011;9573;50.948;11.600;2023-06-22T11:10:00;15.48;;;7.20;;
18881;SDS011;9573;50.948;11.600;2023-06-22T11:12:27;14.98;;;7.18;;
18881;SDS011;9573;50.948;11.600;2023-06-22T11:14:54;14.02;;;7.22;;
18881;SDS011;9573;50.948;11.600;2023-06-22T11:17:22;15.50;;;7.63;;
18881;SDS011;9573;50.948;11.600;2023-06-22T11:19:49;16.27;;;7.47;;
18881;SDS011;9573;50.948;11.600;2023-06-22T11:22:16;15.60;;;7.15;;
18881;SDS011;9573;50.948;11.600;2023-06-22T11:24:45;20.92;;;7.47;;
18881;SDS011;9573;50.948;11.600;2023-06-22T11:27:12;15.68;;;7.32;;
18881;SDS011;9573;50.948;11.600;2023-06-22T11:29:39;13.95;;;6.85;;
18881;SDS011;9573;50.948;11.600;2023-06-22T11:32:07;15.07;;;7.10;;
18881;SDS011;9573;50.948;11.600;2023-06-22T11:34:34;15.30;;;7.20;;
18881;SDS011;9573;50.948;11.600;2023-06-22T11:37:01;15.38;;;7.35;;
18881;SDS011;9573;50.948;11.600;2023-06-22T11:39:28;15.52;;;7.07;;
18881;SDS011;9573;50.948;11.600;2023-06-22T11:41:57;16.52;;;7.35;;
18881;SDS011;9573;50.948;11.600;2023-06-22T11:44:24;15.57;;;7.40;;
18881;SDS011;9573;50.948;11.600;2023-06-22T11:46:51;17.10;;;7.50;;
18881;SDS011;9573;50.948;11.600;2023-06-22T11:49:18;17.13;;;7.07;;
18881;SDS011;9573;50.948;11.600;2023-06-22T11:51:45;16.42;;;7.50;;
18881;SDS011;9573;50.948;11.600;2023-06-22T11:54:12;15.23;;;7.63;;
18881;SDS011;9573;50.948;11.600;2023-06-22T11:56:39;17.17;;;7.75;;
18881;SDS011;9573;50.948;11.600;2023-06-22T11:59:08;16.90;;;8.18;;
18881;SDS011;9573;50.948;11.600;2023-06-22T12:01:35;17.42;;;7.80;;
18881;SDS011;9573;50.948;11.600;2023-06-22T12:04:02;18.25;;;7.93;;
18881;SDS011;9573;50.948;11.600;2023-06-22T12:06:30;15.75;;;8.15;;
18881;SDS011;9573;50.948;11.600;2023-06-22T12:08:58;16.30;;;7.80;;
18881;SDS011;9573;50.948;11.600;2023-06-22T12:11:25;17.38;;;7.97;;
18881;SDS011;9573;50.948;11.600;2023-06-22T12:13:52;15.35;;;7.72;;
18881;SDS011;9573;50.948;11.600;2023-06-22T12:16:20;15.88;;;7.55;;
18881;SDS011;9573;50.948;11.600;2023-06-22T12:18:49;19.00;;;8.10;;
18881;SDS011;9573;50.948;11.600;2023-06-22T12:21:17;15.80;;;7.30;;
18881;SDS011;9573;50.948;11.600;2023-06-22T12:23:44;19.13;;;7.97;;
18881;SDS011;9573;50.948;11.600;2023-06-22T12:26:11;17.17;;;8.00;;
18881;SDS011;9573;50.948;11.600;2023-06-22T12:28:38;17.15;;;7.93;;
18881;SDS011;9573;50.948;11.600;2023-06-22T12:31:05;16.23;;;8.18;;
18881;SDS011;9573;50.948;11.600;2023-06-22T12:33:34;14.70;;;7.43;;
18881;SDS011;9573;50.948;11.600;2023-06-22T12:36:01;17.20;;;7.88;;
18881;SDS011;9573;50.948;11.600;2023-06-22T12:38:30;19.23;;;7.95;;
18881;SDS011;9573;50.948;11.600;2023-06-22T12:40:57;21.40;;;8.45;;
18881;SDS011;9573;50.948;11.600;2023-06-22T12:43:24;19.38;;;8.10;;
18881;SDS011;9573;50.948;11.600;2023-06-22T12:45:51;16.85;;;8.73;;
18881;SDS011;9573;50.948;11.600;2023-06-22T12:48:18;16.70;;;7.97;;
18881;SDS011;9573;50.948;11.600;2023-06-22T12:50:47;18.80;;;8.68;;
18881;SDS011;9573;50.948;11.600;2023-06-22T12:53:14;16.80;;;8.30;;
18881;SDS011;9573;50.948;11.600;2023-06-22T12:55:41;17.83;;;7.82;;
18881;SDS011;9573;50.948;11.600;2023-06-22T12:58:08;16.65;;;8.20;;
18881;SDS011;9573;50.948;11.600;2023-06-22T13:00:35;16.30;;;7.97;;
18881;SDS011;9573;50.948;11.600;2023-06-22T13:03:03;14.52;;;7.60;;
18881;SDS011;9573;50.948;11.600;2023-06-22T13:05:31;16.63;;;8.02;;
18881;SDS011;9573;50.948;11.600;2023-06-22T13:08:01;16.58;;;8.15;;
18881;SDS011;9573;50.948;11.600;2023-06-22T13:10:28;18.35;;;8.40;;
18881;SDS011;9573;50.948;11.600;2023-06-22T13:12:55;17.33;;;7.90;;
18881;SDS011;9573;50.948;11.600;2023-06-22T13:15:25;16.95;;;8.18;;
18881;SDS011;9573;50.948;11.600;2023-06-22T13:17:53;15.90;;;8.20;;
18881;SDS011;9573;50.948;11.600;2023-06-22T13:20:21;17.75;;;8.02;;
18881;SDS011;9573;50.948;11.600;2023-06-22T13:22:48;15.75;;;7.50;;
18881;SDS011;9573;50.948;11.600;2023-06-22T13:25:16;16.00;;;7.90;;
18881;SDS011;9573;50.948;11.600;2023-06-22T13:27:45;19.60;;;7.80;;
18881;SDS011;9573;50.948;11.600;2023-06-22T13:30:13;18.75;;;7.65;;
18881;SDS011;9573;50.948;11.600;2023-06-22T13:32:40;24.45;;;8.25;;
18881;SDS011;9573;50.948;11.600;2023-06-22T13:35:08;17.52;;;8.00;;
18881;SDS011;9573;50.948;11.600;2023-06-22T13:37:35;16.65;;;7.53;;
18881;SDS011;9573;50.948;11.600;2023-06-22T13:40:03;19.40;;;7.55;;
18881;SDS011;9573;50.948;11.600;2023-06-22T13:42:33;15.10;;;7.68;;
18881;SDS011;9573;50.948;11.600;2023-06-22T13:45:00;19.25;;;7.50;;
18881;SDS011;9573;50.948;11.600;2023-06-22T13:47:28;18.55;;;7.57;;
18881;SDS011;9573;50.948;11.600;2023-06-22T13:49:56;17.95;;;7.50;;
18881;SDS011;9573;50.948;11.600;2023-06-22T13:52:23;20.90;;;7.82;;
18881;SDS011;9573;50.948;11.600;2023-06-22T13:54:50;16.38;;;7.60;;
18881;SDS011;9573;50.948;11.600;2023-06-22T13:57:18;18.40;;;7.60;;
18881;SDS011;9573;50.948;11.600;2023-06-22T13:59:46;15.77;;;7.22;;
18881;SDS011;9573;50.948;11.600;2023-06-22T14:02:13;20.05;;;7.40;;
18881;SDS011;9573;50.948;11.600;2023-06-22T14:04:41;17.92;;;8.00;;
18881;SDS011;9573;50.948;11.600;2023-06-22T14:07:08;17.50;;;7.78;;
18881;SDS011;9573;50.948;11.600;2023-06-22T14:09:35;18.13;;;7.95;;
18881;SDS011;9573;50.948;11.600;2023-06-22T14:12:02;18.35;;;7.78;;
18881;SDS011;9573;50.948;11.600;2023-06-22T14:14:31;21.98;;;7.93;;
18881;SDS011;9573;50.948;11.600;2023-06-22T14:16:59;18.23;;;7.80;;
18881;SDS011;9573;50.948;11.600;2023-06-22T14:19:26;14.95;;;7.13;;
18881;SDS011;9573;50.948;11.600;2023-06-22T14:21:54;20.30;;;7.65;;
18881;SDS011;9573;50.948;11.600;2023-06-22T14:24:21;16.65;;;7.35;;
18881;SDS011;9573;50.948;11.600;2023-06-22T14:26:49;19.23;;;7.93;;
18881;SDS011;9573;50.948;11.600;2023-06-22T14:29:16;17.75;;;7.65;;
18881;SDS011;9573;50.948;11.600;2023-06-22T14:31:44;19.27;;;7.97;;
18881;SDS011;9573;50.948;11.600;2023-06-22T14:34:14;17.92;;;7.85;;
18881;SDS011;9573;50.948;11.600;2023-06-22T14:36:42;16.45;;;7.53;;